Terminal Aerodrome Forecast
Issued by NWS Jackson, KY

Home | Current Version | Previous Version | Text Only | Print | Product List | Glossary On
Versions: 1 2 3 4 5 6 7 8 9 10 11 12 13 14 15 16
000
FTUS43 KJKL 220500
TAFJKL
TAF
KJKL 220530Z 2206/2306 34005KT P6SM BKN030
     FM221000 35003KT P6SM OVC015
     FM221500 35003KT P6SM BKN025
     FM221800 33004KT P6SM SCT025 BKN035
     FM230300 00000KT P6SM BKN030=

USA.gov is the U.S. government's official web portal to all federal, state and local government web resources and services.